createdAt,value
2023-01-28T00:00:47.536Z,103101.47
2023-01-28T00:03:16.869Z,103083.63
2023-01-28T00:05:44.144Z,103189.19
2023-01-28T00:08:11.794Z,103181.16
2023-01-28T00:10:39.947Z,103179.50
2023-01-28T00:13:07.036Z,103173.31
2023-01-28T00:15:34.200Z,103172.47
2023-01-28T00:18:01.746Z,103165.09
2023-01-28T00:20:31.138Z,103183.16
2023-01-28T00:22:57.871Z,103061.06
2023-01-28T00:25:25.366Z,103001.81
2023-01-28T00:27:54.044Z,103022.91
2023-01-28T00:30:21.024Z,103168.75
2023-01-28T00:32:49.561Z,103043.78
2023-01-28T00:35:18.259Z,103170.78
2023-01-28T00:37:47.505Z,103147.00
2023-01-28T00:40:14.553Z,103021.56
2023-01-28T00:42:42.876Z,103161.56
2023-01-28T00:45:12.803Z,103101.53
2023-01-28T00:47:40.081Z,103156.06
2023-01-28T00:50:07.561Z,103046.00
2023-01-28T00:52:34.620Z,103155.22
2023-01-28T00:55:01.412Z,103161.41
2023-01-28T00:57:28.395Z,103066.75
2023-01-28T00:59:55.843Z,102980.47
2023-01-28T01:02:26.609Z,103139.00
2023-01-28T01:04:53.601Z,103039.69
2023-01-28T01:07:21.997Z,103160.78
2023-01-28T01:09:48.959Z,103047.19
2023-01-28T01:12:15.751Z,103157.06
2023-01-28T01:14:42.609Z,103135.50
2023-01-28T01:17:11.266Z,103164.44
2023-01-28T01:19:39.850Z,103166.13
2023-01-28T01:22:06.882Z,103167.78
2023-01-28T01:24:36.583Z,103120.28
2023-01-28T01:27:04.709Z,103064.75
2023-01-28T01:29:32.209Z,103159.06
2023-01-28T01:31:59.170Z,103182.47
2023-01-28T01:34:26.210Z,103164.75
2023-01-28T01:36:54.240Z,103167.59
2023-01-28T01:39:22.780Z,103163.25
2023-01-28T01:41:49.489Z,103166.09
2023-01-28T01:44:53.108Z,103169.75
2023-01-28T01:47:22.846Z,103152.03
2023-01-28T01:49:50.016Z,103165.06
2023-01-28T01:52:24.163Z,103174.75
2023-01-28T01:54:54.204Z,103175.78
2023-01-28T01:57:26.083Z,103183.78
2023-01-28T01:59:53.926Z,103186.63
2023-01-28T02:02:22.429Z,103183.09
2023-01-28T02:04:49.729Z,103184.63
2023-01-28T02:07:19.205Z,103150.13
2023-01-28T02:09:46.297Z,103179.28
2023-01-28T02:12:17.874Z,103102.50
2023-01-28T02:14:47.481Z,103159.53
2023-01-28T02:17:16.356Z,103194.16
2023-01-28T02:19:48.721Z,103192.31
2023-01-28T02:23:02.496Z,103178.44
2023-01-28T02:25:41.644Z,103168.06
2023-01-28T02:28:27.162Z,103099.16
2023-01-28T02:31:04.040Z,103051.66
2023-01-28T02:33:36.054Z,103185.13
2023-01-28T02:36:14.612Z,103154.38
2023-01-28T02:38:46.140Z,103177.47
2023-01-28T02:41:20.334Z,102962.56
2023-01-28T02:43:48.957Z,103044.97
2023-01-28T02:46:34.558Z,103136.66
2023-01-28T02:49:02.607Z,103141.66
2023-01-28T02:51:49.123Z,103178.81
2023-01-28T02:54:28.557Z,103163.59
2023-01-28T02:57:05.634Z,103150.88
2023-01-28T02:59:37.895Z,103049.00
2023-01-28T03:02:12.740Z,103137.31
2023-01-28T03:04:46.469Z,103168.25
2023-01-28T03:07:15.068Z,103165.94
2023-01-28T03:09:45.091Z,103179.44
2023-01-28T03:12:18.089Z,103040.81
2023-01-28T03:14:51.175Z,103165.94
2023-01-28T03:17:26.639Z,103155.72
2023-01-28T03:19:55.161Z,103149.03
2023-01-28T03:22:24.118Z,103103.84
2023-01-28T03:24:53.461Z,103124.56
2023-01-28T03:27:29.568Z,103174.75
2023-01-28T03:30:01.184Z,103176.44
2023-01-28T03:32:29.389Z,103179.09
2023-01-28T03:34:56.444Z,103178.09
2023-01-28T03:37:23.468Z,103187.97
2023-01-28T03:39:50.420Z,103121.69
2023-01-28T03:42:17.175Z,103164.34
2023-01-28T03:44:44.212Z,103195.31
2023-01-28T03:47:13.026Z,103118.19
2023-01-28T03:49:41.612Z,103183.25
2023-01-28T03:52:09.050Z,103185.28
2023-01-28T03:54:36.061Z,103160.66
2023-01-28T03:57:02.829Z,103179.44
2023-01-28T03:59:29.720Z,103180.75
2023-01-28T04:01:57.048Z,103145.63
2023-01-28T04:04:26.861Z,103098.44
2023-01-28T04:06:55.224Z,103131.56
2023-01-28T04:09:22.366Z,103159.53
2023-01-28T04:11:50.337Z,103166.72
2023-01-28T04:14:17.457Z,103157.19
2023-01-28T04:16:45.997Z,103174.06
2023-01-28T04:19:13.310Z,103122.91
2023-01-28T04:21:41.668Z,103032.59
2023-01-28T04:24:10.353Z,103019.19
2023-01-28T04:26:38.009Z,103152.16
2023-01-28T04:29:05.816Z,103030.56
2023-01-28T04:31:33.856Z,103117.56
2023-01-28T04:34:00.974Z,103162.69
2023-01-28T04:36:29.102Z,103147.47
2023-01-28T04:38:57.666Z,103072.38
2023-01-28T04:41:24.647Z,103069.69
2023-01-28T04:43:52.052Z,103156.66
2023-01-28T04:46:18.995Z,103157.34
2023-01-28T04:48:45.754Z,103012.13
2023-01-28T04:51:13.086Z,103012.97
2023-01-28T04:53:41.405Z,103032.00
2023-01-28T04:56:09.810Z,103055.56
2023-01-28T04:58:36.792Z,103107.41
2023-01-28T05:01:03.836Z,103037.13
2023-01-28T05:03:30.538Z,103157.63
2023-01-28T05:05:57.511Z,103065.25
2023-01-28T05:08:24.608Z,103078.97
2023-01-28T05:10:51.409Z,103138.53
2023-01-28T05:13:19.960Z,103137.72
2023-01-28T05:15:51.808Z,102942.22
2023-01-28T05:18:19.285Z,103064.06
2023-01-28T05:20:46.076Z,103152.09
2023-01-28T05:23:13.625Z,103149.56
2023-01-28T05:25:40.891Z,103108.91
2023-01-28T05:28:07.974Z,103146.59
2023-01-28T05:30:38.241Z,103127.69
2023-01-28T05:33:05.658Z,103092.06
2023-01-28T05:35:32.399Z,103145.94
2023-01-28T05:37:59.677Z,103113.81
2023-01-28T05:40:27.242Z,103157.66
2023-01-28T05:42:54.332Z,103152.31
2023-01-28T05:45:21.531Z,103154.81
2023-01-28T05:47:49.696Z,103143.28
2023-01-28T05:50:20.310Z,103156.81
2023-01-28T05:52:47.360Z,103143.78
2023-01-28T05:55:16.170Z,103148.97
2023-01-28T05:57:43.387Z,103148.44
2023-01-28T06:00:11.594Z,103138.09
2023-01-28T06:02:39.185Z,103150.44
2023-01-28T06:05:09.068Z,103136.25
2023-01-28T06:07:36.209Z,103146.94
2023-01-28T06:10:03.437Z,103034.69
2023-01-28T06:12:30.549Z,103065.13
2023-01-28T06:14:58.598Z,103148.28
2023-01-28T06:17:25.985Z,103099.72
2023-01-28T06:19:52.901Z,103109.47
2023-01-28T06:22:21.117Z,103063.91
2023-01-28T06:24:48.450Z,103132.03
2023-01-28T06:27:15.448Z,103130.84
2023-01-28T06:29:43.113Z,103142.72
2023-01-28T06:32:09.826Z,102985.47
2023-01-28T06:34:37.010Z,103033.47
2023-01-28T06:37:04.342Z,102969.91
2023-01-28T06:39:38.692Z,103076.59
2023-01-28T06:42:10.591Z,103101.34
2023-01-28T06:44:37.434Z,103161.56
2023-01-28T06:47:07.387Z,103094.13
2023-01-28T06:49:35.670Z,103082.22
2023-01-28T06:52:04.401Z,103143.81
2023-01-28T06:54:37.301Z,103132.06
2023-01-28T06:57:04.454Z,103170.75
2023-01-28T06:59:31.290Z,103175.09
2023-01-28T07:01:59.995Z,103181.09
2023-01-28T07:04:30.220Z,103175.88
2023-01-28T07:06:57.113Z,103125.38
2023-01-28T07:09:24.129Z,103171.53
2023-01-28T07:11:52.400Z,103181.59
2023-01-28T07:14:20.380Z,103095.56
2023-01-28T07:16:47.935Z,103020.09
2023-01-28T07:19:14.844Z,103191.91
2023-01-28T07:21:42.114Z,103137.03
2023-01-28T07:24:11.880Z,103164.97
2023-01-28T07:26:38.709Z,103090.72
2023-01-28T07:29:07.477Z,103151.78
2023-01-28T07:31:34.639Z,103171.72
2023-01-28T07:34:01.602Z,103166.13
2023-01-28T07:36:28.349Z,103141.84
2023-01-28T07:38:55.329Z,103175.28
2023-01-28T07:41:22.549Z,103176.72
2023-01-28T07:43:49.420Z,103080.50
2023-01-28T07:46:17.567Z,103142.97
2023-01-28T07:48:44.345Z,103189.66
2023-01-28T07:51:12.352Z,103180.09
2023-01-28T07:53:39.382Z,103190.97
2023-01-28T07:56:07.919Z,103189.41
2023-01-28T07:58:34.945Z,103148.69
2023-01-28T08:01:02.424Z,103165.22
2023-01-28T08:03:33.202Z,103159.38
2023-01-28T08:06:00.000Z,103188.53
2023-01-28T08:08:27.309Z,103217.47
2023-01-28T08:10:55.046Z,103116.13
2023-01-28T08:13:21.904Z,103126.97
2023-01-28T08:15:49.038Z,103201.06
2023-01-28T08:18:17.814Z,103225.53
2023-01-28T08:20:46.084Z,103226.06
2023-01-28T08:23:15.018Z,103118.56
2023-01-28T08:25:42.781Z,103209.03
2023-01-28T08:28:10.403Z,103132.03
2023-01-28T08:30:38.163Z,103238.00
2023-01-28T08:33:05.987Z,103229.94
2023-01-28T08:35:33.914Z,103248.78
2023-01-28T08:38:07.306Z,103251.44
2023-01-28T08:40:35.322Z,103226.59
2023-01-28T08:43:02.728Z,103186.69
2023-01-28T08:45:29.701Z,103261.41
2023-01-28T08:47:58.454Z,103258.84
2023-01-28T08:50:29.807Z,103248.25
2023-01-28T08:52:57.727Z,103253.44
2023-01-28T08:55:26.817Z,103096.78
2023-01-28T08:57:53.976Z,103243.25
2023-01-28T09:00:21.651Z,103244.47
2023-01-28T09:02:51.729Z,103232.84
2023-01-28T09:05:19.675Z,103223.16
2023-01-28T09:07:46.544Z,103260.06
2023-01-28T09:10:13.888Z,103236.75
2023-01-28T09:12:42.520Z,103261.75
2023-01-28T09:15:11.440Z,103271.84
2023-01-28T09:17:38.631Z,103188.09
2023-01-28T09:20:07.471Z,103265.53
2023-01-28T09:22:34.484Z,103264.56
2023-01-28T09:25:01.288Z,103195.00
2023-01-28T09:27:28.630Z,103215.09
2023-01-28T09:29:56.803Z,103232.56
2023-01-28T09:32:23.825Z,103263.09
2023-01-28T09:34:50.609Z,103262.13
2023-01-28T09:37:17.434Z,103254.78
2023-01-28T09:39:51.357Z,103254.34
2023-01-28T09:42:53.378Z,103197.28
2023-01-28T09:45:29.105Z,103142.53
2023-01-28T09:47:59.419Z,103235.66
2023-01-28T09:50:31.388Z,103255.09
2023-01-28T09:56:13.324Z,103155.00
2023-01-28T09:58:42.157Z,103209.34
2023-01-28T10:01:31.957Z,103275.22
2023-01-28T10:04:06.429Z,103261.50
2023-01-28T10:06:45.780Z,103270.09
2023-01-28T10:09:24.447Z,103249.66
2023-01-28T10:12:05.217Z,103264.47
2023-01-28T10:14:53.630Z,103110.75
2023-01-28T10:17:27.349Z,103235.03
2023-01-28T10:19:59.460Z,103238.59
2023-01-28T10:22:34.831Z,103015.59
2023-01-28T10:25:06.061Z,103088.94
2023-01-28T10:27:33.401Z,103196.59
2023-01-28T10:30:11.084Z,103189.84
2023-01-28T10:32:46.961Z,103201.06
2023-01-28T10:35:16.855Z,103175.00
2023-01-28T10:37:44.152Z,103101.09
2023-01-28T10:40:15.766Z,103085.91
2023-01-28T10:42:43.166Z,103181.38
2023-01-28T10:45:18.644Z,103166.50
2023-01-28T10:47:53.402Z,103129.38
2023-01-28T10:50:24.381Z,103034.28
2023-01-28T10:52:53.896Z,103040.63
2023-01-28T10:55:21.656Z,103162.59
2023-01-28T10:57:51.851Z,103155.09
2023-01-28T11:00:25.959Z,103032.41
2023-01-28T11:02:55.251Z,103126.78
2023-01-28T11:05:27.136Z,103128.97
2023-01-28T11:08:13.790Z,103037.56
2023-01-28T11:10:41.795Z,103105.00
2023-01-28T11:13:19.031Z,103017.31
2023-01-28T11:15:50.807Z,103141.94
2023-01-28T11:18:22.703Z,103102.84
2023-01-28T11:20:53.277Z,103150.81
2023-01-28T11:23:23.277Z,103089.47
2023-01-28T11:26:00.443Z,103180.53
2023-01-28T11:28:27.219Z,103039.22
2023-01-28T11:30:58.788Z,103168.00
2023-01-28T11:33:33.681Z,103043.38
2023-01-28T11:36:07.121Z,103110.09
2023-01-28T11:38:34.093Z,103151.50
2023-01-28T11:41:00.965Z,103175.50
2023-01-28T11:43:30.229Z,103135.56
2023-01-28T11:46:08.942Z,103172.59
2023-01-28T11:48:45.625Z,103172.19
2023-01-28T11:51:29.683Z,103120.88
2023-01-28T11:54:10.790Z,103156.84
2023-01-28T11:56:52.128Z,103053.31
2023-01-28T11:59:28.152Z,103140.78
2023-01-28T12:02:02.548Z,103049.69
2023-01-28T12:04:50.547Z,103033.56
2023-01-28T12:07:30.268Z,103111.22
2023-01-28T12:10:00.808Z,103102.09
2023-01-28T12:12:58.069Z,103121.50
2023-01-28T12:16:01.288Z,103130.00
2023-01-28T12:18:54.303Z,103104.28
2023-01-28T12:21:30.595Z,103073.66
2023-01-28T12:24:12.521Z,103101.69
2023-01-28T12:26:51.292Z,103115.56
2023-01-28T12:29:26.760Z,103106.47
2023-01-28T12:32:06.964Z,103109.97
2023-01-28T12:34:55.660Z,103090.19
2023-01-28T12:37:37.355Z,103084.94
2023-01-28T12:40:22.482Z,103055.31
2023-01-28T12:43:02.233Z,102918.75
2023-01-28T12:45:38.638Z,103085.13
2023-01-28T12:48:14.600Z,103100.22
2023-01-28T12:50:47.222Z,103095.41
2023-01-28T12:53:23.462Z,103105.31
2023-01-28T12:55:55.923Z,103006.88
2023-01-28T12:58:32.273Z,103086.06
2023-01-28T13:01:07.712Z,103018.13
2023-01-28T13:03:40.022Z,103084.66
2023-01-28T13:06:14.307Z,103009.84
2023-01-28T13:08:42.528Z,103088.13
2023-01-28T13:11:14.458Z,103029.41
2023-01-28T13:13:42.578Z,103019.97
2023-01-28T13:16:11.547Z,103113.41
2023-01-28T13:18:44.898Z,103096.34
2023-01-28T13:21:17.862Z,103026.25
2023-01-28T13:23:48.217Z,103087.25
2023-01-28T13:26:30.869Z,103101.03
2023-01-28T13:29:17.452Z,103091.09
2023-01-28T13:31:46.499Z,103102.66
2023-01-28T13:34:30.753Z,103067.41
2023-01-28T13:37:00.865Z,103064.13
2023-01-28T13:39:30.681Z,103090.66
2023-01-28T13:42:10.655Z,103058.47
2023-01-28T13:44:38.280Z,103073.84
2023-01-28T13:47:21.185Z,103077.84
2023-01-28T13:49:55.114Z,103049.72
2023-01-28T13:52:29.878Z,103056.13
2023-01-28T13:55:04.552Z,102982.06
2023-01-28T13:57:53.922Z,103042.06
2023-01-28T14:00:27.199Z,103040.00
2023-01-28T14:03:38.682Z,103063.66
2023-01-28T14:06:22.698Z,103062.03
2023-01-28T14:09:10.517Z,103031.28
2023-01-28T14:12:14.666Z,103066.09
2023-01-28T14:15:20.232Z,103088.75
2023-01-28T14:17:51.087Z,102979.28
2023-01-28T14:20:21.676Z,103091.19
2023-01-28T14:22:49.614Z,103106.66
2023-01-28T14:25:22.644Z,103013.69
2023-01-28T14:27:53.956Z,103116.19
2023-01-28T14:30:29.404Z,103109.38
2023-01-28T14:32:56.793Z,103104.59
2023-01-28T14:35:32.910Z,103118.41
2023-01-28T14:38:00.865Z,103113.78
2023-01-28T14:40:32.300Z,103115.28
2023-01-28T14:43:01.341Z,103112.88
2023-01-28T14:45:51.733Z,103088.91
2023-01-28T14:48:27.041Z,103093.44
2023-01-28T14:51:23.248Z,103107.03
2023-01-28T14:54:20.077Z,103078.88
2023-01-28T14:57:02.734Z,103118.97
2023-01-28T14:59:39.641Z,103134.59
2023-01-28T15:02:17.415Z,103121.09
2023-01-28T15:04:44.490Z,103116.53
2023-01-28T15:07:22.873Z,103103.13
2023-01-28T15:10:00.270Z,103103.38
2023-01-28T15:12:27.884Z,103129.88
2023-01-28T15:14:58.490Z,103119.97
2023-01-28T15:17:28.326Z,103099.66
2023-01-28T15:19:57.319Z,103127.38
2023-01-28T15:22:27.542Z,103119.69
2023-01-28T15:24:55.049Z,103124.38
2023-01-28T15:27:27.383Z,103113.00
2023-01-28T15:29:58.063Z,103080.13
2023-01-28T15:32:26.911Z,103108.91
2023-01-28T15:34:54.003Z,103097.38
2023-01-28T15:37:21.219Z,103109.84
2023-01-28T15:39:48.647Z,103082.75
2023-01-28T15:42:20.530Z,103016.22
2023-01-28T15:44:48.453Z,103091.22
2023-01-28T15:47:22.060Z,102976.34
2023-01-28T15:49:53.066Z,103070.78
2023-01-28T15:52:20.706Z,102899.81
2023-01-28T15:54:51.877Z,103083.59
2023-01-28T15:57:21.047Z,102980.31
2023-01-28T15:59:49.334Z,103061.91
2023-01-28T16:02:20.674Z,103049.03
2023-01-28T16:04:57.282Z,103066.81
2023-01-28T16:07:24.393Z,103050.75
2023-01-28T16:09:52.859Z,103083.28
2023-01-28T16:12:20.774Z,103011.28
2023-01-28T16:14:51.926Z,103065.47
2023-01-28T16:17:22.464Z,103043.44
2023-01-28T16:19:55.936Z,103048.19
2023-01-28T16:22:32.331Z,102887.06
2023-01-28T16:25:01.076Z,103049.59
2023-01-28T16:27:29.724Z,103083.47
2023-01-28T16:29:56.754Z,103071.31
2023-01-28T16:32:31.169Z,103089.34
2023-01-28T16:34:58.198Z,102990.09
2023-01-28T16:39:59.104Z,103079.34
2023-01-28T16:42:31.299Z,103077.53
2023-01-28T16:44:58.195Z,102986.91
2023-01-28T16:47:25.102Z,103081.53
2023-01-28T16:49:53.743Z,103066.75
2023-01-28T16:52:23.074Z,103057.25
2023-01-28T16:54:50.410Z,102952.44
2023-01-28T16:57:20.032Z,102969.97
2023-01-28T16:59:52.929Z,103082.78
2023-01-28T17:02:20.081Z,103105.88
2023-01-28T17:04:47.229Z,102884.63
2023-01-28T17:07:16.078Z,103032.63
2023-01-28T17:09:43.299Z,103103.44
2023-01-28T17:12:11.171Z,103098.22
2023-01-28T17:14:38.157Z,103093.72
2023-01-28T17:17:05.271Z,103084.88
2023-01-28T17:19:32.091Z,102956.09
2023-01-28T17:21:59.144Z,102964.75
2023-01-28T17:24:29.533Z,103120.31
2023-01-28T17:26:56.575Z,103103.13
2023-01-28T17:29:23.300Z,103065.56
2023-01-28T17:31:50.323Z,103006.88
2023-01-28T17:34:18.321Z,102972.81
2023-01-28T17:36:45.239Z,103136.41
2023-01-28T17:39:12.031Z,103097.97
2023-01-28T17:41:40.505Z,103050.97
2023-01-28T17:44:07.561Z,103148.66
2023-01-28T17:46:35.335Z,103142.78
2023-01-28T17:49:02.509Z,103151.97
2023-01-28T17:51:29.754Z,102964.69
2023-01-28T17:53:56.506Z,103157.66
2023-01-28T17:56:26.453Z,103153.13
2023-01-28T17:58:56.908Z,103145.94
2023-01-28T18:01:25.976Z,103074.97
2023-01-28T18:04:00.118Z,103146.09
2023-01-28T18:06:30.537Z,102979.00
2023-01-28T18:08:58.127Z,103148.13
2023-01-28T18:11:25.242Z,103096.19
2023-01-28T18:13:57.096Z,103144.13
2023-01-28T18:16:26.188Z,103144.78
2023-01-28T18:18:55.274Z,103106.19
2023-01-28T18:21:42.937Z,103010.19
2023-01-28T18:24:14.927Z,103139.63
2023-01-28T18:26:42.554Z,103133.75
2023-01-28T18:29:10.174Z,103047.25
2023-01-28T18:31:38.742Z,103112.56
2023-01-28T18:34:05.975Z,103145.97
2023-01-28T18:36:32.691Z,103149.50
2023-01-28T18:39:01.876Z,103153.66
2023-01-28T18:41:28.799Z,103154.13
2023-01-28T18:43:55.883Z,103027.72
2023-01-28T18:46:24.032Z,103149.59
2023-01-28T18:48:52.906Z,103130.94
2023-01-28T18:51:29.942Z,103146.94
2023-01-28T18:53:58.699Z,103133.75
2023-01-28T18:56:26.085Z,103142.56
2023-01-28T18:58:56.611Z,103134.22
2023-01-28T19:01:23.660Z,103147.94
2023-01-28T19:03:53.293Z,103045.75
2023-01-28T19:06:20.365Z,103134.38
2023-01-28T19:08:52.192Z,103135.22
2023-01-28T19:11:19.056Z,103125.69
2023-01-28T19:13:48.975Z,103139.25
2023-01-28T19:16:15.853Z,103087.09
2023-01-28T19:18:42.651Z,103066.63
2023-01-28T19:21:10.806Z,103064.50
2023-01-28T19:23:49.258Z,102998.00
2023-01-28T19:26:17.212Z,103050.34
2023-01-28T19:28:44.179Z,103124.94
2023-01-28T19:31:10.984Z,103115.28
2023-01-28T19:33:38.428Z,103132.34
2023-01-28T19:36:10.481Z,103129.00
2023-01-28T19:38:37.275Z,103064.72
2023-01-28T19:41:04.576Z,103120.97
2023-01-28T19:43:31.965Z,103099.56
2023-01-28T19:46:02.656Z,103109.22
2023-01-28T19:48:30.094Z,103102.56
2023-01-28T19:50:56.997Z,103085.50
2023-01-28T19:53:25.218Z,103022.41
2023-01-28T19:55:53.958Z,103042.47
2023-01-28T19:58:20.796Z,103102.66
2023-01-28T20:00:47.785Z,103082.88
2023-01-28T20:03:15.088Z,102998.13
2023-01-28T20:05:42.106Z,103091.84
2023-01-28T20:08:10.634Z,103103.16
2023-01-28T20:10:41.405Z,103104.81
2023-01-28T20:13:14.131Z,102933.16
2023-01-28T20:15:41.174Z,103071.56
2023-01-28T20:18:07.923Z,103088.63
2023-01-28T20:20:36.465Z,103059.41
2023-01-28T20:23:05.743Z,103080.28
2023-01-28T20:25:34.278Z,102953.66
2023-01-28T20:28:03.380Z,103078.78
2023-01-28T20:30:30.203Z,103066.66
2023-01-28T20:32:57.338Z,103046.97
2023-01-28T20:35:24.323Z,103035.09
2023-01-28T20:37:51.515Z,103061.84
2023-01-28T20:40:20.185Z,103075.63
2023-01-28T20:42:46.994Z,102979.00
2023-01-28T20:45:16.107Z,103110.53
2023-01-28T20:47:46.152Z,103002.78
2023-01-28T20:50:13.215Z,103119.59
2023-01-28T20:52:40.811Z,103068.13
2023-01-28T20:55:08.728Z,103101.88
2023-01-28T20:57:35.965Z,103091.13
2023-01-28T21:00:04.028Z,103086.78
2023-01-28T21:02:32.746Z,103087.41
2023-01-28T21:04:59.717Z,103070.63
2023-01-28T21:07:26.744Z,103060.06
2023-01-28T21:09:53.647Z,103089.94
2023-01-28T21:12:20.660Z,103091.47
2023-01-28T21:14:47.493Z,103042.28
2023-01-28T21:17:16.594Z,102987.88
2023-01-28T21:19:44.942Z,102947.53
2023-01-28T21:22:11.695Z,103038.69
2023-01-28T21:24:38.756Z,103053.53
2023-01-28T21:27:05.622Z,103041.38
2023-01-28T21:29:32.759Z,102929.34
2023-01-28T21:31:59.573Z,102963.13
2023-01-28T21:34:26.581Z,103108.75
2023-01-28T21:36:56.865Z,102964.75
2023-01-28T21:39:24.167Z,103098.88
2023-01-28T21:41:51.324Z,103055.47
2023-01-28T21:44:18.217Z,102977.34
2023-01-28T21:46:46.439Z,103087.13
2023-01-28T21:49:13.251Z,103081.75
2023-01-28T21:51:40.903Z,103073.25
2023-01-28T21:54:12.277Z,103073.38
2023-01-28T21:56:39.226Z,103070.50
2023-01-28T21:59:06.160Z,103063.81
2023-01-28T22:01:33.439Z,103049.66
2023-01-28T22:04:00.568Z,103058.97
2023-01-28T22:06:27.821Z,103061.84
2023-01-28T22:08:57.411Z,103053.31
2023-01-28T22:11:25.886Z,103035.72
2023-01-28T22:13:54.590Z,102847.97
2023-01-28T22:16:21.504Z,103046.19
2023-01-28T22:18:48.615Z,103053.25
2023-01-28T22:21:15.918Z,102831.44
2023-01-28T22:23:42.765Z,102896.38
2023-01-28T22:26:09.640Z,102950.47
2023-01-28T22:28:37.803Z,102893.47
2023-01-28T22:31:07.303Z,102966.28
2023-01-28T22:33:34.495Z,102890.25
2023-01-28T22:36:02.022Z,103016.78
2023-01-28T22:38:29.160Z,103001.97
2023-01-28T22:41:04.583Z,103008.44
2023-01-28T22:43:31.422Z,102916.72
2023-01-28T22:46:00.071Z,102868.03
2023-01-28T22:48:27.335Z,103045.84
2023-01-28T22:50:54.142Z,103035.94
2023-01-28T22:53:22.029Z,102982.47
2023-01-28T22:55:51.349Z,102904.41
2023-01-28T22:58:18.153Z,102963.22
2023-01-28T23:00:45.167Z,103019.75
2023-01-28T23:03:13.803Z,102982.59
2023-01-28T23:05:40.673Z,102851.34
2023-01-28T23:08:07.568Z,103021.06
2023-01-28T23:10:34.635Z,103003.72
2023-01-28T23:13:01.462Z,102984.50
2023-01-28T23:15:28.458Z,102878.38
2023-01-28T23:17:55.423Z,102988.00
2023-01-28T23:20:24.073Z,102867.91
2023-01-28T23:22:51.406Z,102995.13
2023-01-28T23:25:20.671Z,102963.28
2023-01-28T23:27:47.581Z,102988.69
2023-01-28T23:30:15.224Z,102961.50
2023-01-28T23:32:45.991Z,102923.84
2023-01-28T23:35:13.265Z,102794.00
2023-01-28T23:37:42.928Z,102782.22
2023-01-28T23:40:11.436Z,102877.66
2023-01-28T23:42:40.936Z,102970.78
2023-01-28T23:45:08.809Z,102899.34
2023-01-28T23:47:36.000Z,102979.91
2023-01-28T23:50:03.391Z,102966.28
2023-01-28T23:52:30.265Z,102990.63
2023-01-28T23:55:00.964Z,102979.56
2023-01-28T23:57:28.082Z,102981.22
2023-01-28T23:59:54.834Z,102983.72
